sensor_id;sensor_type;location;lat;lon;timestamp;pressure;altitude;pressure_sealevel;temperature;humidity
63954;BME280;50128;52.094;5.232;2023-03-21T00:01:40;99273.0;;;-3.34;100.0
63954;BME280;50128;52.094;5.232;2023-03-21T00:03:16;99273.0;;;-3.28;100.0
63954;BME280;50128;52.094;5.232;2023-03-21T00:04:52;99270.0;;;-3.3;100.0
63954;BME280;50128;52.094;5.232;2023-03-21T00:08:04;99266.0;;;-3.39;100.0
63954;BME280;50128;52.094;5.232;2023-03-21T00:09:41;99265.0;;;-3.39;100.0
63954;BME280;50128;52.094;5.232;2023-03-21T00:11:17;99262.0;;;-3.31;100.0
63954;BME280;50128;52.094;5.232;2023-03-21T00:14:29;99262.0;;;-3.32;100.0
63954;BME280;50128;52.094;5.232;2023-03-21T00:16:08;99262.0;;;-3.34;100.0
63954;BME280;50128;52.094;5.232;2023-03-21T00:17:44;99256.0;;;-3.38;100.0
63954;BME280;50128;52.094;5.232;2023-03-21T00:19:20;99251.0;;;-3.33;100.0
63954;BME280;50128;52.094;5.232;2023-03-21T00:22:35;99252.0;;;-3.38;100.0
63954;BME280;50128;52.094;5.232;2023-03-21T00:24:11;99258.0;;;-3.33;100.0
63954;BME280;50128;52.094;5.232;2023-03-21T00:25:47;99257.0;;;-3.38;100.0
63954;BME280;50128;52.094;5.232;2023-03-21T00:28:59;99255.0;;;-3.41;100.0
63954;BME280;50128;52.094;5.232;2023-03-21T00:30:35;99255.0;;;-3.42;100.0
63954;BME280;50128;52.094;5.232;2023-03-21T00:32:15;99253.0;;;-3.32;100.0
63954;BME280;50128;52.094;5.232;2023-03-21T00:35:27;99253.0;;;-3.29;100.0
63954;BME280;50128;52.094;5.232;2023-03-21T00:37:03;99251.0;;;-3.33;100.0
63954;BME280;50128;52.094;5.232;2023-03-21T00:38:39;99251.0;;;-3.36;100.0
63954;BME280;50128;52.094;5.232;2023-03-21T00:40:16;99247.0;;;-3.34;100.0
63954;BME280;50128;52.094;5.232;2023-03-21T00:43:28;99248.0;;;-3.38;100.0
63954;BME280;50128;52.094;5.232;2023-03-21T00:45:04;99244.0;;;-3.45;100.0
63954;BME280;50128;52.094;5.232;2023-03-21T00:46:41;99242.0;;;-3.46;100.0
63954;BME280;50128;52.094;5.232;2023-03-21T00:49:54;99241.0;;;-3.44;100.0
63954;BME280;50128;52.094;5.232;2023-03-21T00:51:29;99238.0;;;-3.37;100.0
63954;BME280;50128;52.094;5.232;2023-03-21T00:53:06;99241.0;;;-3.36;100.0
63954;BME280;50128;52.094;5.232;2023-03-21T00:56:19;99236.0;;;-3.35;100.0
63954;BME280;50128;52.094;5.232;2023-03-21T00:57:55;99230.0;;;-3.29;100.0
63954;BME280;50128;52.094;5.232;2023-03-21T00:59:31;99225.0;;;-3.29;100.0
63954;BME280;50128;52.094;5.232;2023-03-21T01:01:07;99230.0;;;-3.24;100.0
63954;BME280;50128;52.094;5.232;2023-03-21T01:04:20;99224.0;;;-3.32;100.0
63954;BME280;50128;52.094;5.232;2023-03-21T01:05:58;99224.0;;;-3.31;100.0
63954;BME280;50128;52.094;5.232;2023-03-21T01:07:34;99218.0;;;-3.4;100.0
63954;BME280;50128;52.094;5.232;2023-03-21T01:10:50;99214.0;;;-3.33;100.0
63954;BME280;50128;52.094;5.232;2023-03-21T01:12:26;99212.0;;;-3.22;100.0
63954;BME280;50128;52.094;5.232;2023-03-21T01:14:02;99206.0;;;-3.27;100.0
63954;BME280;50128;52.094;5.232;2023-03-21T01:17:20;99205.0;;;-3.26;100.0
63954;BME280;50128;52.094;5.232;2023-03-21T01:18:56;99205.0;;;-3.34;100.0
63954;BME280;50128;52.094;5.232;2023-03-21T01:20:33;99203.0;;;-3.33;100.0
63954;BME280;50128;52.094;5.232;2023-03-21T01:22:09;99203.0;;;-3.31;100.0
63954;BME280;50128;52.094;5.232;2023-03-21T01:25:23;99198.0;;;-3.41;100.0
63954;BME280;50128;52.094;5.232;2023-03-21T01:27:00;99201.0;;;-3.34;100.0
63954;BME280;50128;52.094;5.232;2023-03-21T01:28:39;99196.0;;;-3.37;100.0
63954;BME280;50128;52.094;5.232;2023-03-21T01:31:53;99198.0;;;-3.34;100.0
63954;BME280;50128;52.094;5.232;2023-03-21T01:33:30;99193.0;;;-3.25;100.0
63954;BME280;50128;52.094;5.232;2023-03-21T01:35:07;99194.0;;;-3.24;100.0
63954;BME280;50128;52.094;5.232;2023-03-21T01:36:44;99190.0;;;-3.28;100.0
63954;BME280;50128;52.094;5.232;2023-03-21T01:39:56;99185.0;;;-3.36;100.0
63954;BME280;50128;52.094;5.232;2023-03-21T01:41:33;99189.0;;;-3.43;100.0
63954;BME280;50128;52.094;5.232;2023-03-21T01:43:20;99185.0;;;-3.38;100.0
63954;BME280;50128;52.094;5.232;2023-03-21T01:46:40;99182.0;;;-3.47;100.0
63954;BME280;50128;52.094;5.232;2023-03-21T01:49:55;99177.0;;;-3.41;100.0
63954;BME280;50128;52.094;5.232;2023-03-21T01:51:37;99177.0;;;-3.44;100.0
63954;BME280;50128;52.094;5.232;2023-03-21T01:54:56;99175.0;;;-3.47;100.0
63954;BME280;50128;52.094;5.232;2023-03-21T01:56:35;99173.0;;;-3.41;100.0
63954;BME280;50128;52.094;5.232;2023-03-21T01:58:14;99173.0;;;-3.4;100.0
63954;BME280;50128;52.094;5.232;2023-03-21T01:59:53;99168.0;;;-3.46;100.0
63954;BME280;50128;52.094;5.232;2023-03-21T02:03:08;99164.0;;;-3.44;100.0
63954;BME280;50128;52.094;5.232;2023-03-21T02:04:45;99156.0;;;-3.39;100.0
63954;BME280;50128;52.094;5.232;2023-03-21T02:06:28;99155.0;;;-3.39;100.0
63954;BME280;50128;52.094;5.232;2023-03-21T02:08:05;99152.0;;;-3.29;100.0
63954;BME280;50128;52.094;5.232;2023-03-21T02:11:22;99148.0;;;-3.46;100.0
63954;BME280;50128;52.094;5.232;2023-03-21T02:13:00;99149.0;;;-3.51;100.0
63954;BME280;50128;52.094;5.232;2023-03-21T02:14:38;99144.0;;;-3.44;100.0
63954;BME280;50128;52.094;5.232;2023-03-21T02:18:06;99142.0;;;-3.42;100.0
63954;BME280;50128;52.094;5.232;2023-03-21T02:25:15;99139.0;;;-3.39;100.0
63954;BME280;50128;52.094;5.232;2023-03-21T02:28:08;99134.0;;;-3.45;100.0
63954;BME280;50128;52.094;5.232;2023-03-21T02:33:36;99132.0;;;-3.24;100.0
63954;BME280;50128;52.094;5.232;2023-03-21T02:37:04;99131.0;;;-3.33;100.0
63954;BME280;50128;52.094;5.232;2023-03-21T02:38:53;99123.0;;;-3.36;100.0
63954;BME280;50128;52.094;5.232;2023-03-21T02:40:33;99122.0;;;-3.4;100.0
63954;BME280;50128;52.094;5.232;2023-03-21T02:42:17;99122.0;;;-3.35;100.0
63954;BME280;50128;52.094;5.232;2023-03-21T02:44:01;99119.0;;;-3.25;100.0
63954;BME280;50128;52.094;5.232;2023-03-21T02:45:44;99115.0;;;-3.23;100.0
63954;BME280;50128;52.094;5.232;2023-03-21T02:49:11;99114.0;;;-3.19;100.0
63954;BME280;50128;52.094;5.232;2023-03-21T02:50:54;99112.0;;;-3.21;100.0
63954;BME280;50128;52.094;5.232;2023-03-21T02:52:34;99109.0;;;-3.25;100.0
63954;BME280;50128;52.094;5.232;2023-03-21T02:54:13;99114.0;;;-3.37;100.0
63954;BME280;50128;52.094;5.232;2023-03-21T02:57:29;99106.0;;;-3.33;100.0
63954;BME280;50128;52.094;5.232;2023-03-21T02:59:06;99107.0;;;-3.37;100.0
63954;BME280;50128;52.094;5.232;2023-03-21T03:00:44;99106.0;;;-3.46;100.0
63954;BME280;50128;52.094;5.232;2023-03-21T03:04:02;99100.0;;;-3.32;100.0
63954;BME280;50128;52.094;5.232;2023-03-21T03:05:42;99099.0;;;-3.37;100.0
63954;BME280;50128;52.094;5.232;2023-03-21T03:07:30;99105.0;;;-3.37;100.0
63954;BME280;50128;52.094;5.232;2023-03-21T03:09:25;99100.0;;;-3.39;100.0
63954;BME280;50128;52.094;5.232;2023-03-21T03:11:14;99102.0;;;-3.32;100.0
63954;BME280;50128;52.094;5.232;2023-03-21T03:13:05;99106.0;;;-3.45;100.0
63954;BME280;50128;52.094;5.232;2023-03-21T03:16:38;99102.0;;;-3.37;100.0
63954;BME280;50128;52.094;5.232;2023-03-21T03:18:28;99106.0;;;-3.34;100.0
63954;BME280;50128;52.094;5.232;2023-03-21T03:20:19;99105.0;;;-3.46;100.0
63954;BME280;50128;52.094;5.232;2023-03-21T03:22:05;99106.0;;;-3.44;100.0
63954;BME280;50128;52.094;5.232;2023-03-21T03:23:47;99101.0;;;-3.5;100.0
63954;BME280;50128;52.094;5.232;2023-03-21T03:25:28;99096.0;;;-3.56;100.0
63954;BME280;50128;52.094;5.232;2023-03-21T03:28:50;99100.0;;;-3.46;100.0
63954;BME280;50128;52.094;5.232;2023-03-21T03:30:29;99097.0;;;-3.55;100.0
63954;BME280;50128;52.094;5.232;2023-03-21T03:32:08;99096.0;;;-3.57;100.0
63954;BME280;50128;52.094;5.232;2023-03-21T03:33:48;99093.0;;;-3.56;100.0
63954;BME280;50128;52.094;5.232;2023-03-21T03:37:07;99094.0;;;-3.7;100.0
63954;BME280;50128;52.094;5.232;2023-03-21T03:38:47;99091.0;;;-3.73;100.0
63954;BME280;50128;52.094;5.232;2023-03-21T03:40:27;99090.0;;;-3.6;100.0
63954;BME280;50128;52.094;5.232;2023-03-21T03:43:52;99089.0;;;-3.6;100.0
63954;BME280;50128;52.094;5.232;2023-03-21T03:45:33;99081.0;;;-3.68;100.0
63954;BME280;50128;52.094;5.232;2023-03-21T03:47:20;99087.0;;;-3.53;100.0
63954;BME280;50128;52.094;5.232;2023-03-21T03:49:01;99081.0;;;-3.44;100.0
63954;BME280;50128;52.094;5.232;2023-03-21T03:50:42;99086.0;;;-3.48;100.0
63954;BME280;50128;52.094;5.232;2023-03-21T03:54:10;99086.0;;;-3.47;100.0
63954;BME280;50128;52.094;5.232;2023-03-21T03:55:48;99080.0;;;-3.46;100.0
63954;BME280;50128;52.094;5.232;2023-03-21T03:57:26;99083.0;;;-3.51;100.0
63954;BME280;50128;52.094;5.232;2023-03-21T03:59:03;99080.0;;;-3.44;100.0
63954;BME280;50128;52.094;5.232;2023-03-21T04:02:16;99077.0;;;-3.43;100.0
63954;BME280;50128;52.094;5.232;2023-03-21T04:03:52;99078.0;;;-3.28;100.0
63954;BME280;50128;52.094;5.232;2023-03-21T04:05:28;99080.0;;;-3.37;100.0
63954;BME280;50128;52.094;5.232;2023-03-21T04:08:40;99076.0;;;-3.4;100.0
63954;BME280;50128;52.094;5.232;2023-03-21T04:10:18;99077.0;;;-3.5;100.0
63954;BME280;50128;52.094;5.232;2023-03-21T04:11:56;99081.0;;;-3.59;100.0
63954;BME280;50128;52.094;5.232;2023-03-21T04:13:33;99078.0;;;-3.61;100.0
63954;BME280;50128;52.094;5.232;2023-03-21T04:16:46;99073.0;;;-3.47;100.0
63954;BME280;50128;52.094;5.232;2023-03-21T04:18:23;99069.0;;;-3.49;100.0
63954;BME280;50128;52.094;5.232;2023-03-21T04:19:59;99067.0;;;-3.47;100.0
63954;BME280;50128;52.094;5.232;2023-03-21T04:23:11;99067.0;;;-3.43;100.0
63954;BME280;50128;52.094;5.232;2023-03-21T04:24:47;99061.0;;;-3.36;100.0
63954;BME280;50128;52.094;5.232;2023-03-21T04:26:24;99064.0;;;-3.44;100.0
63954;BME280;50128;52.094;5.232;2023-03-21T04:29:36;99063.0;;;-3.48;100.0
63954;BME280;50128;52.094;5.232;2023-03-21T04:31:12;99058.0;;;-3.59;100.0
63954;BME280;50128;52.094;5.232;2023-03-21T04:32:48;99062.0;;;-3.45;100.0
63954;BME280;50128;52.094;5.232;2023-03-21T04:36:00;99057.0;;;-3.41;100.0
63954;BME280;50128;52.094;5.232;2023-03-21T04:37:37;99055.0;;;-3.38;100.0
63954;BME280;50128;52.094;5.232;2023-03-21T04:39:13;99050.0;;;-3.36;100.0
63954;BME280;50128;52.094;5.232;2023-03-21T04:40:50;99055.0;;;-3.34;100.0
63954;BME280;50128;52.094;5.232;2023-03-21T04:44:02;99053.0;;;-3.33;100.0
63954;BME280;50128;52.094;5.232;2023-03-21T04:45:38;99047.0;;;-3.42;100.0
63954;BME280;50128;52.094;5.232;2023-03-21T04:47:15;99053.0;;;-3.42;100.0
63954;BME280;50128;52.094;5.232;2023-03-21T04:50:29;99046.0;;;-3.43;100.0
63954;BME280;50128;52.094;5.232;2023-03-21T04:52:05;99048.0;;;-3.46;100.0
63954;BME280;50128;52.094;5.232;2023-03-21T04:53:41;99045.0;;;-3.56;100.0
63954;BME280;50128;52.094;5.232;2023-03-21T04:56:53;99046.0;;;-3.55;100.0
63954;BME280;50128;52.094;5.232;2023-03-21T04:58:29;99047.0;;;-3.62;100.0
63954;BME280;50128;52.094;5.232;2023-03-21T05:00:07;99052.0;;;-3.77;100.0
63954;BME280;50128;52.094;5.232;2023-03-21T05:01:46;99049.0;;;-3.73;100.0
63954;BME280;50128;52.094;5.232;2023-03-21T05:04:58;99050.0;;;-3.73;100.0
63954;BME280;50128;52.094;5.232;2023-03-21T05:06:35;99047.0;;;-3.59;100.0
63954;BME280;50128;52.094;5.232;2023-03-21T05:08:11;99050.0;;;-3.61;100.0
63954;BME280;50128;52.094;5.232;2023-03-21T05:11:25;99046.0;;;-3.62;100.0
63954;BME280;50128;52.094;5.232;2023-03-21T05:13:02;99043.0;;;-3.69;100.0
63954;BME280;50128;52.094;5.232;2023-03-21T05:14:38;99040.0;;;-3.57;100.0
63954;BME280;50128;52.094;5.232;2023-03-21T05:17:51;99035.0;;;-3.49;100.0
63954;BME280;50128;52.094;5.232;2023-03-21T05:19:29;99036.0;;;-3.52;100.0
63954;BME280;50128;52.094;5.232;2023-03-21T05:21:05;99033.0;;;-3.62;100.0
63954;BME280;50128;52.094;5.232;2023-03-21T05:22:42;99031.0;;;-3.48;100.0
63954;BME280;50128;52.094;5.232;2023-03-21T05:25:57;99025.0;;;-3.44;100.0
63954;BME280;50128;52.094;5.232;2023-03-21T05:27:33;99026.0;;;-3.6;100.0
63954;BME280;50128;52.094;5.232;2023-03-21T05:29:10;99026.0;;;-3.49;100.0
63954;BME280;50128;52.094;5.232;2023-03-21T05:32:22;99027.0;;;-3.62;100.0
63954;BME280;50128;52.094;5.232;2023-03-21T05:33:59;99026.0;;;-3.63;100.0
63954;BME280;50128;52.094;5.232;2023-03-21T05:35:36;99027.0;;;-3.59;100.0
63954;BME280;50128;52.094;5.232;2023-03-21T05:37:12;99026.0;;;-3.69;100.0
63954;BME280;50128;52.094;5.232;2023-03-21T05:40:25;99020.0;;;-3.61;100.0
63954;BME280;50128;52.094;5.232;2023-03-21T05:42:01;99025.0;;;-3.48;100.0
63954;BME280;50128;52.094;5.232;2023-03-21T05:43:37;99025.0;;;-3.57;100.0
63954;BME280;50128;52.094;5.232;2023-03-21T05:46:51;99021.0;;;-3.56;100.0
63954;BME280;50128;52.094;5.232;2023-03-21T05:48:27;99023.0;;;-3.53;100.0
63954;BME280;50128;52.094;5.232;2023-03-21T05:50:04;99016.0;;;-3.64;100.0
63954;BME280;50128;52.094;5.232;2023-03-21T05:53:16;99018.0;;;-3.72;100.0
63954;BME280;50128;52.094;5.232;2023-03-21T05:54:52;99018.0;;;-3.74;100.0
63954;BME280;50128;52.094;5.232;2023-03-21T05:56:28;99015.0;;;-3.46;100.0
63954;BME280;50128;52.094;5.232;2023-03-21T05:59:40;99014.0;;;-3.35;100.0
63954;BME280;50128;52.094;5.232;2023-03-21T06:01:16;99014.0;;;-3.42;100.0
63954;BME280;50128;52.094;5.232;2023-03-21T06:02:52;99020.0;;;-3.36;100.0
63954;BME280;50128;52.094;5.232;2023-03-21T06:04:28;99020.0;;;-3.43;100.0
63954;BME280;50128;52.094;5.232;2023-03-21T06:07:40;99021.0;;;-3.55;100.0
63954;BME280;50128;52.094;5.232;2023-03-21T06:09:17;99022.0;;;-3.5;100.0
63954;BME280;50128;52.094;5.232;2023-03-21T06:10:53;99023.0;;;-3.35;100.0
63954;BME280;50128;52.094;5.232;2023-03-21T06:14:05;99022.0;;;-3.4;100.0
63954;BME280;50128;52.094;5.232;2023-03-21T06:15:41;99022.0;;;-3.37;100.0
63954;BME280;50128;52.094;5.232;2023-03-21T06:17:17;99024.0;;;-3.43;100.0
63954;BME280;50128;52.094;5.232;2023-03-21T06:20:31;99017.0;;;-3.31;100.0
63954;BME280;50128;52.094;5.232;2023-03-21T06:22:07;99018.0;;;-3.33;100.0
63954;BME280;50128;52.094;5.232;2023-03-21T06:23:43;99019.0;;;-3.31;100.0
63954;BME280;50128;52.094;5.232;2023-03-21T06:25:19;99017.0;;;-3.38;100.0
63954;BME280;50128;52.094;5.232;2023-03-21T06:28:32;99020.0;;;-3.37;100.0
63954;BME280;50128;52.094;5.232;2023-03-21T06:30:10;99018.0;;;-3.41;100.0
63954;BME280;50128;52.094;5.232;2023-03-21T06:31:47;99019.0;;;-3.39;100.0
63954;BME280;50128;52.094;5.232;2023-03-21T06:34:59;99017.0;;;-3.31;100.0
63954;BME280;50128;52.094;5.232;2023-03-21T06:36:35;99016.0;;;-3.29;100.0
63954;BME280;50128;52.094;5.232;2023-03-21T06:38:11;99021.0;;;-3.28;100.0
63954;BME280;50128;52.094;5.232;2023-03-21T06:41:24;99028.0;;;-3.47;100.0
63954;BME280;50128;52.094;5.232;2023-03-21T06:43:00;99024.0;;;-3.45;100.0
63954;BME280;50128;52.094;5.232;2023-03-21T06:44:36;99026.0;;;-3.39;100.0
63954;BME280;50128;52.094;5.232;2023-03-21T06:47:48;99027.0;;;-3.38;100.0
63954;BME280;50128;52.094;5.232;2023-03-21T06:49:25;99030.0;;;-3.47;100.0
63954;BME280;50128;52.094;5.232;2023-03-21T06:51:00;99027.0;;;-3.63;100.0
63954;BME280;50128;52.094;5.232;2023-03-21T06:52:37;99027.0;;;-3.55;100.0
63954;BME280;50128;52.094;5.232;2023-03-21T06:55:50;99030.0;;;-3.45;100.0
63954;BME280;50128;52.094;5.232;2023-03-21T06:57:26;99022.0;;;-3.55;100.0
63954;BME280;50128;52.094;5.232;2023-03-21T06:59:02;99028.0;;;-3.39;100.0
63954;BME280;50128;52.094;5.232;2023-03-21T07:02:15;99025.0;;;-3.4;100.0
63954;BME280;50128;52.094;5.232;2023-03-21T07:03:51;99025.0;;;-3.4;100.0
63954;BME280;50128;52.094;5.232;2023-03-21T07:05:27;99030.0;;;-3.37;100.0
63954;BME280;50128;52.094;5.232;2023-03-21T07:08:40;99031.0;;;-3.42;100.0
63954;BME280;50128;52.094;5.232;2023-03-21T07:10:17;99030.0;;;-3.37;100.0
63954;BME280;50128;52.094;5.232;2023-03-21T07:11:52;99031.0;;;-3.22;100.0
63954;BME280;50128;52.094;5.232;2023-03-21T07:13:29;99035.0;;;-3.31;100.0
63954;BME280;50128;52.094;5.232;2023-03-21T07:16:44;99032.0;;;-3.34;100.0
63954;BME280;50128;52.094;5.232;2023-03-21T07:18:21;99039.0;;;-3.31;100.0
63954;BME280;50128;52.094;5.232;2023-03-21T07:19:57;99039.0;;;-3.16;100.0
63954;BME280;50128;52.094;5.232;2023-03-21T07:23:10;99038.0;;;-3.15;100.0
63954;BME280;50128;52.094;5.232;2023-03-21T07:24:47;99039.0;;;-3.25;100.0
63954;BME280;50128;52.094;5.232;2023-03-21T07:26:23;99041.0;;;-3.24;100.0
63954;BME280;50128;52.094;5.232;2023-03-21T07:29:35;99038.0;;;-3.2;100.0
63954;BME280;50128;52.094;5.232;2023-03-21T07:31:13;99036.0;;;-3.19;100.0
63954;BME280;50128;52.094;5.232;2023-03-21T07:32:50;99031.0;;;-3.13;100.0
63954;BME280;50128;52.094;5.232;2023-03-21T07:34:27;99031.0;;;-3.07;100.0
63954;BME280;50128;52.094;5.232;2023-03-21T07:37:47;99031.0;;;-3.11;100.0
63954;BME280;50128;52.094;5.232;2023-03-21T07:39:23;99024.0;;;-3.04;100.0
63954;BME280;50128;52.094;5.232;2023-03-21T07:40:59;99021.0;;;-3.13;100.0
63954;BME280;50128;52.094;5.232;2023-03-21T07:44:11;99016.0;;;-3.11;100.0
63954;BME280;50128;52.094;5.232;2023-03-21T07:45:47;99009.0;;;-3.1;100.0
63954;BME280;50128;52.094;5.232;2023-03-21T07:47:24;99003.0;;;-2.96;100.0
63954;BME280;50128;52.094;5.232;2023-03-21T07:49:00;98999.0;;;-3.0;100.0
63954;BME280;50128;52.094;5.232;2023-03-21T07:52:12;99007.0;;;-2.86;100.0
63954;BME280;50128;52.094;5.232;2023-03-21T07:53:48;99005.0;;;-2.98;100.0
63954;BME280;50128;52.094;5.232;2023-03-21T07:55:24;99005.0;;;-2.83;100.0
63954;BME280;50128;52.094;5.232;2023-03-21T07:58:36;99005.0;;;-2.83;100.0
63954;BME280;50128;52.094;5.232;2023-03-21T08:00:14;99003.0;;;-2.93;100.0
63954;BME280;50128;52.094;5.232;2023-03-21T08:01:50;99003.0;;;-2.86;100.0
63954;BME280;50128;52.094;5.232;2023-03-21T08:05:02;99007.0;;;-2.93;100.0
63954;BME280;50128;52.094;5.232;2023-03-21T08:06:39;99006.0;;;-2.97;100.0
63954;BME280;50128;52.094;5.232;2023-03-21T08:08:16;99007.0;;;-2.94;100.0
63954;BME280;50128;52.094;5.232;2023-03-21T08:11:29;99002.0;;;-3.04;100.0
63954;BME280;50128;52.094;5.232;2023-03-21T08:13:05;99007.0;;;-2.98;100.0
63954;BME280;50128;52.094;5.232;2023-03-21T08:14:41;98996.0;;;-3.06;100.0
63954;BME280;50128;52.094;5.232;2023-03-21T08:16:17;98996.0;;;-2.9;100.0
63954;BME280;50128;52.094;5.232;2023-03-21T08:19:29;98993.0;;;-2.93;100.0
63954;BME280;50128;52.094;5.232;2023-03-21T08:21:06;98995.0;;;-2.9;100.0
63954;BME280;50128;52.094;5.232;2023-03-21T08:22:42;98993.0;;;-2.93;100.0
63954;BME280;50128;52.094;5.232;2023-03-21T08:25:55;98993.0;;;-2.87;100.0
63954;BME280;50128;52.094;5.232;2023-03-21T08:27:33;98989.0;;;-2.8;100.0
63954;BME280;50128;52.094;5.232;2023-03-21T08:29:09;98986.0;;;-2.9;100.0
63954;BME280;50128;52.094;5.232;2023-03-21T08:32:21;98986.0;;;-2.75;100.0
63954;BME280;50128;52.094;5.232;2023-03-21T08:33:57;98987.0;;;-2.79;100.0
63954;BME280;50128;52.094;5.232;2023-03-21T08:35:34;98987.0;;;-2.66;100.0
63954;BME280;50128;52.094;5.232;2023-03-21T08:37:10;98984.0;;;-2.75;100.0
63954;BME280;50128;52.094;5.232;2023-03-21T08:40:22;98983.0;;;-2.69;100.0
63954;BME280;50128;52.094;5.232;2023-03-21T08:41:58;98977.0;;;-2.72;100.0
63954;BME280;50128;52.094;5.232;2023-03-21T08:43:34;98970.0;;;-2.74;100.0
63954;BME280;50128;52.094;5.232;2023-03-21T08:46:49;98965.0;;;-2.69;100.0
63954;BME280;50128;52.094;5.232;2023-03-21T08:48:25;98967.0;;;-2.61;100.0
63954;BME280;50128;52.094;5.232;2023-03-21T08:50:02;98969.0;;;-2.54;100.0
63954;BME280;50128;52.094;5.232;2023-03-21T08:53:14;98968.0;;;-2.59;100.0
63954;BME280;50128;52.094;5.232;2023-03-21T08:54:51;98961.0;;;-2.63;100.0
63954;BME280;50128;52.094;5.232;2023-03-21T08:56:27;98962.0;;;-2.45;100.0
63954;BME280;50128;52.094;5.232;2023-03-21T08:58:03;98957.0;;;-2.59;100.0
63954;BME280;50128;52.094;5.232;2023-03-21T09:01:16;98947.0;;;-2.62;100.0
63954;BME280;50128;52.094;5.232;2023-03-21T09:02:52;98947.0;;;-2.54;100.0
63954;BME280;50128;52.094;5.232;2023-03-21T09:04:28;98947.0;;;-2.52;100.0
63954;BME280;50128;52.094;5.232;2023-03-21T09:07:41;98941.0;;;-2.64;100.0
63954;BME280;50128;52.094;5.232;2023-03-21T09:09:18;98943.0;;;-2.6;100.0
63954;BME280;50128;52.094;5.232;2023-03-21T09:10:55;98940.0;;;-2.4;100.0
63954;BME280;50128;52.094;5.232;2023-03-21T09:14:07;98944.0;;;-2.44;100.0
63954;BME280;50128;52.094;5.232;2023-03-21T09:15:44;98939.0;;;-2.38;100.0
63954;BME280;50128;52.094;5.232;2023-03-21T09:17:20;98939.0;;;-2.47;100.0
63954;BME280;50128;52.094;5.232;2023-03-21T09:18:57;98931.0;;;-2.45;100.0
63954;BME280;50128;52.094;5.232;2023-03-21T09:22:10;98925.0;;;-2.44;100.0
63954;BME280;50128;52.094;5.232;2023-03-21T09:23:46;98925.0;;;-2.38;100.0
63954;BME280;50128;52.094;5.232;2023-03-21T09:25:23;98923.0;;;-2.33;100.0
63954;BME280;50128;52.094;5.232;2023-03-21T09:28:36;98923.0;;;-2.31;100.0
63954;BME280;50128;52.094;5.232;2023-03-21T09:30:13;98920.0;;;-2.29;100.0
63954;BME280;50128;52.094;5.232;2023-03-21T09:31:51;98916.0;;;-2.26;100.0
63954;BME280;50128;52.094;5.232;2023-03-21T09:35:04;98914.0;;;-2.21;100.0
63954;BME280;50128;52.094;5.232;2023-03-21T09:36:41;98912.0;;;-2.25;100.0
63954;BME280;50128;52.094;5.232;2023-03-21T09:38:17;98913.0;;;-2.19;100.0
63954;BME280;50128;52.094;5.232;2023-03-21T09:39:54;98906.0;;;-2.19;100.0
63954;BME280;50128;52.094;5.232;2023-03-21T09:43:33;98903.0;;;-1.99;100.0
63954;BME280;50128;52.094;5.232;2023-03-21T09:45:19;98908.0;;;-1.91;100.0
63954;BME280;50128;52.094;5.232;2023-03-21T09:47:03;98909.0;;;-1.99;100.0
63954;BME280;50128;52.094;5.232;2023-03-21T09:48:49;98906.0;;;-1.91;100.0
63954;BME280;50128;52.094;5.232;2023-03-21T09:50:34;98906.0;;;-2.02;100.0
63954;BME280;50128;52.094;5.232;2023-03-21T09:53:58;98906.0;;;-1.99;100.0
63954;BME280;50128;52.094;5.232;2023-03-21T09:55:39;98900.0;;;-1.9;100.0
63954;BME280;50128;52.094;5.232;2023-03-21T09:57:26;98905.0;;;-1.75;100.0
63954;BME280;50128;52.094;5.232;2023-03-21T09:59:06;98905.0;;;-1.92;100.0
63954;BME280;50128;52.094;5.232;2023-03-21T10:02:35;98905.0;;;-1.8;100.0
63954;BME280;50128;52.094;5.232;2023-03-21T10:04:14;98905.0;;;-1.77;100.0
63954;BME280;50128;52.094;5.232;2023-03-21T10:05:52;98907.0;;;-1.8;100.0
63954;BME280;50128;52.094;5.232;2023-03-21T10:07:30;98912.0;;;-1.8;100.0
63954;BME280;50128;52.094;5.232;2023-03-21T10:09:16;98906.0;;;-1.71;100.0
63954;BME280;50128;52.094;5.232;2023-03-21T10:12:37;98905.0;;;-1.84;100.0
63954;BME280;50128;52.094;5.232;2023-03-21T10:14:16;98906.0;;;-1.68;100.0
63954;BME280;50128;52.094;5.232;2023-03-21T10:15:56;98902.0;;;-1.72;100.0
63954;BME280;50128;52.094;5.232;2023-03-21T10:17:36;98907.0;;;-1.66;100.0
63954;BME280;50128;52.094;5.232;2023-03-21T10:20:53;98910.0;;;-1.55;100.0
63954;BME280;50128;52.094;5.232;2023-03-21T10:22:30;98907.0;;;-1.62;100.0
63954;BME280;50128;52.094;5.232;2023-03-21T10:24:09;98903.0;;;-1.53;100.0
63954;BME280;50128;52.094;5.232;2023-03-21T10:27:29;98901.0;;;-1.46;100.0
63954;BME280;50128;52.094;5.232;2023-03-21T10:29:09;98895.0;;;-1.38;100.0
63954;BME280;50128;52.094;5.232;2023-03-21T10:30:50;98892.0;;;-1.51;100.0
63954;BME280;50128;52.094;5.232;2023-03-21T10:32:27;98887.0;;;-1.48;100.0
63954;BME280;50128;52.094;5.232;2023-03-21T10:35:55;98884.0;;;-1.38;100.0
63954;BME280;50128;52.094;5.232;2023-03-21T10:37:33;98886.0;;;-1.38;100.0
63954;BME280;50128;52.094;5.232;2023-03-21T10:39:18;98882.0;;;-1.39;100.0
63954;BME280;50128;52.094;5.232;2023-03-21T10:40:57;98880.0;;;-1.35;100.0
63954;BME280;50128;52.094;5.232;2023-03-21T10:44:11;98881.0;;;-1.29;100.0
63954;BME280;50128;52.094;5.232;2023-03-21T10:45:49;98874.0;;;-1.22;100.0
63954;BME280;50128;52.094;5.232;2023-03-21T10:47:30;98880.0;;;-1.29;100.0
63954;BME280;50128;52.094;5.232;2023-03-21T10:49:07;98880.0;;;-1.05;100.0
63954;BME280;50128;52.094;5.232;2023-03-21T10:52:26;98886.0;;;-1.03;100.0
63954;BME280;50128;52.094;5.232;2023-03-21T10:54:06;98881.0;;;-1.2;100.0
63954;BME280;50128;52.094;5.232;2023-03-21T10:55:47;98880.0;;;-1.15;100.0
63954;BME280;50128;52.094;5.232;2023-03-21T10:57:26;98881.0;;;-1.04;100.0
63954;BME280;50128;52.094;5.232;2023-03-21T11:00:42;98888.0;;;-1.07;100.0
63954;BME280;50128;52.094;5.232;2023-03-21T11:02:23;98880.0;;;-1.14;100.0
63954;BME280;50128;52.094;5.232;2023-03-21T11:04:06;98880.0;;;-1.13;100.0
63954;BME280;50128;52.094;5.232;2023-03-21T11:05:43;98884.0;;;-1.03;100.0
63954;BME280;50128;52.094;5.232;2023-03-21T11:09:00;98886.0;;;-0.84;100.0
63954;BME280;50128;52.094;5.232;2023-03-21T11:10:51;98885.0;;;-0.93;99.85
63954;BME280;50128;52.094;5.232;2023-03-21T11:12:32;98882.0;;;-0.9;100.0
63954;BME280;50128;52.094;5.232;2023-03-21T11:14:25;98877.0;;;-0.78;99.94
63954;BME280;50128;52.094;5.232;2023-03-21T11:16:09;98878.0;;;-0.66;100.0
63954;BME280;50128;52.094;5.232;2023-03-21T11:19:29;98878.0;;;-0.61;100.0
63954;BME280;50128;52.094;5.232;2023-03-21T11:21:07;98873.0;;;-0.57;100.0
63954;BME280;50128;52.094;5.232;2023-03-21T11:22:46;98872.0;;;-0.72;100.0
63954;BME280;50128;52.094;5.232;2023-03-21T11:26:08;98869.0;;;-0.61;99.8
63954;BME280;50128;52.094;5.232;2023-03-21T11:27:47;98865.0;;;-0.84;100.0